Terminal Aerodrome Forecast
Issued by NWS

Home | Current Version | Previous Version | Text Only | Print | Product List | Glossary On
Versions: 1 2 3 4 5 6 7 8 9 10 11 12 13
000
FTUS43 KOAX 212330
TAFSNY
TAF
KSNY 212330Z 2200/2224 12009KT P6SM SKC
     FM220600 22010KT P6SM FEW100
     FM221800 16015KT P6SM BKN120=

USA.gov is the U.S. government's official web portal to all federal, state and local government web resources and services.